sensor_id;sensor_type;location;lat;lon;timestamp;pressure;altitude;pressure_sealevel;temperature;humidity
20368;BME280;10343;52.402;9.796;2023-04-28T00:00:30;101100.59;;;18.39;28.26
20368;BME280;10343;52.402;9.796;2023-04-28T00:02:58;101094.78;;;18.66;27.75
20368;BME280;10343;52.402;9.796;2023-04-28T00:05:27;101089.06;;;18.37;28.18
20368;BME280;10343;52.402;9.796;2023-04-28T00:07:55;101085.16;;;18.44;28.02
20368;BME280;10343;52.402;9.796;2023-04-28T00:10:23;101085.19;;;18.25;28.40
20368;BME280;10343;52.402;9.796;2023-04-28T00:12:51;101082.72;;;18.21;28.44
20368;BME280;10343;52.402;9.796;2023-04-28T00:15:19;101076.56;;;18.73;27.85
20368;BME280;10343;52.402;9.796;2023-04-28T00:17:48;101089.13;;;17.99;28.71
20368;BME280;10343;52.402;9.796;2023-04-28T00:20:16;101080.94;;;18.39;28.11
20368;BME280;10343;52.402;9.796;2023-04-28T00:22:47;101085.59;;;18.35;28.27
20368;BME280;10343;52.402;9.796;2023-04-28T00:25:16;101067.34;;;18.96;27.65
20368;BME280;10343;52.402;9.796;2023-04-28T00:27:44;101066.41;;;18.97;27.45
20368;BME280;10343;52.402;9.796;2023-04-28T00:30:13;101062.19;;;18.74;28.03
20368;BME280;10343;52.402;9.796;2023-04-28T00:32:41;101064.72;;;17.85;28.89
20368;BME280;10343;52.402;9.796;2023-04-28T00:35:10;101058.75;;;18.53;28.11
20368;BME280;10343;52.402;9.796;2023-04-28T00:37:38;101054.03;;;18.40;28.38
20368;BME280;10343;52.402;9.796;2023-04-28T00:40:07;101057.53;;;18.60;28.07
20368;BME280;10343;52.402;9.796;2023-04-28T00:42:36;101056.72;;;18.40;28.26
20368;BME280;10343;52.402;9.796;2023-04-28T00:45:05;101054.00;;;17.27;29.71
20368;BME280;10343;52.402;9.796;2023-04-28T00:47:33;101044.16;;;18.41;28.60
20368;BME280;10343;52.402;9.796;2023-04-28T00:50:03;101049.09;;;17.94;29.07
20368;BME280;10343;52.402;9.796;2023-04-28T00:52:33;101048.03;;;18.35;28.23
20368;BME280;10343;52.402;9.796;2023-04-28T00:55:01;101042.78;;;17.76;29.37
20368;BME280;10343;52.402;9.796;2023-04-28T00:57:29;101044.31;;;18.01;28.91
20368;BME280;10343;52.402;9.796;2023-04-28T00:59:58;101041.88;;;18.50;28.48
20368;BME280;10343;52.402;9.796;2023-04-28T01:02:27;101043.19;;;18.24;28.83
20368;BME280;10343;52.402;9.796;2023-04-28T01:04:58;101026.22;;;19.11;27.96
20368;BME280;10343;52.402;9.796;2023-04-28T01:07:27;101029.88;;;18.58;28.18
20368;BME280;10343;52.402;9.796;2023-04-28T01:09:57;101026.94;;;18.45;28.39
20368;BME280;10343;52.402;9.796;2023-04-28T01:12:30;101026.09;;;18.44;28.45
20368;BME280;10343;52.402;9.796;2023-04-28T01:14:58;101030.63;;;18.07;29.16
20368;BME280;10343;52.402;9.796;2023-04-28T01:17:27;101012.69;;;19.13;28.00
20368;BME280;10343;52.402;9.796;2023-04-28T01:19:56;101006.94;;;19.03;27.73
20368;BME280;10343;52.402;9.796;2023-04-28T01:22:23;101015.44;;;18.95;27.88
20368;BME280;10343;52.402;9.796;2023-04-28T01:24:53;101007.41;;;19.11;27.70
20368;BME280;10343;52.402;9.796;2023-04-28T01:27:22;101012.31;;;19.03;28.01
20368;BME280;10343;52.402;9.796;2023-04-28T01:29:50;101012.22;;;20.34;26.24
20368;BME280;10343;52.402;9.796;2023-04-28T01:32:18;101008.28;;;19.77;26.92
20368;BME280;10343;52.402;9.796;2023-04-28T01:34:46;101008.16;;;18.97;27.86
20368;BME280;10343;52.402;9.796;2023-04-28T01:37:14;101011.00;;;18.42;28.76
20368;BME280;10343;52.402;9.796;2023-04-28T01:39:43;101009.34;;;18.92;27.97
20368;BME280;10343;52.402;9.796;2023-04-28T01:42:12;101000.28;;;18.42;28.61
20368;BME280;10343;52.402;9.796;2023-04-28T01:44:40;100998.09;;;18.83;28.04
20368;BME280;10343;52.402;9.796;2023-04-28T01:47:09;101000.50;;;18.55;28.53
20368;BME280;10343;52.402;9.796;2023-04-28T01:49:37;100988.31;;;18.65;28.33
20368;BME280;10343;52.402;9.796;2023-04-28T01:52:06;100989.63;;;18.40;28.73
20368;BME280;10343;52.402;9.796;2023-04-28T01:54:35;100991.06;;;18.81;28.10
20368;BME280;10343;52.402;9.796;2023-04-28T01:57:03;100988.41;;;18.63;28.55
20368;BME280;10343;52.402;9.796;2023-04-28T01:59:33;100984.78;;;19.15;27.71
20368;BME280;10343;52.402;9.796;2023-04-28T02:02:01;100973.78;;;18.69;28.20
20368;BME280;10343;52.402;9.796;2023-04-28T02:04:29;100978.81;;;18.05;29.03
20368;BME280;10343;52.402;9.796;2023-04-28T02:06:57;100971.53;;;19.12;27.79
20368;BME280;10343;52.402;9.796;2023-04-28T02:09:25;100973.84;;;17.97;29.19
20368;BME280;10343;52.402;9.796;2023-04-28T02:11:57;100976.25;;;17.08;30.64
20368;BME280;10343;52.402;9.796;2023-04-28T02:14:25;100976.16;;;17.67;29.78
20368;BME280;10343;52.402;9.796;2023-04-28T02:16:55;100971.63;;;17.50;30.29
20368;BME280;10343;52.402;9.796;2023-04-28T02:19:23;100965.44;;;17.67;29.91
20368;BME280;10343;52.402;9.796;2023-04-28T02:21:51;100967.19;;;17.30;30.29
20368;BME280;10343;52.402;9.796;2023-04-28T02:24:19;100960.22;;;18.02;29.65
20368;BME280;10343;52.402;9.796;2023-04-28T02:26:47;100953.00;;;17.66;29.85
20368;BME280;10343;52.402;9.796;2023-04-28T02:29:15;100957.28;;;18.07;29.66
20368;BME280;10343;52.402;9.796;2023-04-28T02:31:42;100953.13;;;18.36;29.09
20368;BME280;10343;52.402;9.796;2023-04-28T02:34:13;100949.31;;;18.05;29.29
20368;BME280;10343;52.402;9.796;2023-04-28T02:36:41;100939.22;;;18.45;28.93
20368;BME280;10343;52.402;9.796;2023-04-28T02:39:09;100936.91;;;19.06;27.97
20368;BME280;10343;52.402;9.796;2023-04-28T02:41:37;100930.97;;;18.83;28.27
20368;BME280;10343;52.402;9.796;2023-04-28T02:44:05;100918.19;;;19.05;27.94
20368;BME280;10343;52.402;9.796;2023-04-28T02:46:33;100917.88;;;19.43;27.56
20368;BME280;10343;52.402;9.796;2023-04-28T02:49:03;100923.28;;;20.05;26.78
20368;BME280;10343;52.402;9.796;2023-04-28T02:51:32;100917.44;;;19.18;27.89
20368;BME280;10343;52.402;9.796;2023-04-28T02:54:00;100924.41;;;18.03;29.42
20368;BME280;10343;52.402;9.796;2023-04-28T02:56:28;100922.66;;;18.02;29.34
20368;BME280;10343;52.402;9.796;2023-04-28T02:58:58;100917.47;;;17.99;29.52
20368;BME280;10343;52.402;9.796;2023-04-28T03:01:27;100912.00;;;16.88;30.98
20368;BME280;10343;52.402;9.796;2023-04-28T03:03:55;100914.13;;;17.38;30.38
20368;BME280;10343;52.402;9.796;2023-04-28T03:06:23;100909.53;;;18.48;29.08
20368;BME280;10343;52.402;9.796;2023-04-28T03:08:53;100899.66;;;18.49;28.82
20368;BME280;10343;52.402;9.796;2023-04-28T03:11:21;100899.44;;;18.01;29.50
20368;BME280;10343;52.402;9.796;2023-04-28T03:13:49;100904.19;;;18.13;29.41
20368;BME280;10343;52.402;9.796;2023-04-28T03:16:17;100898.97;;;17.93;29.68
20368;BME280;10343;52.402;9.796;2023-04-28T03:18:45;100891.88;;;18.44;29.03
20368;BME280;10343;52.402;9.796;2023-04-28T03:21:13;100888.94;;;18.31;29.00
20368;BME280;10343;52.402;9.796;2023-04-28T03:23:41;100887.63;;;18.40;29.38
20368;BME280;10343;52.402;9.796;2023-04-28T03:26:10;100878.16;;;19.00;28.50
20368;BME280;10343;52.402;9.796;2023-04-28T03:28:39;100894.19;;;18.68;28.80
20368;BME280;10343;52.402;9.796;2023-04-28T03:31:07;100887.28;;;18.29;29.48
20368;BME280;10343;52.402;9.796;2023-04-28T03:33:34;100878.28;;;18.12;29.72
20368;BME280;10343;52.402;9.796;2023-04-28T03:36:03;100880.19;;;17.93;30.07
20368;BME280;10343;52.402;9.796;2023-04-28T03:38:31;100872.72;;;18.68;29.13
20368;BME280;10343;52.402;9.796;2023-04-28T03:40:59;100869.97;;;18.52;29.13
20368;BME280;10343;52.402;9.796;2023-04-28T03:43:31;100868.75;;;17.53;30.66
20368;BME280;10343;52.402;9.796;2023-04-28T03:46:27;100860.81;;;18.39;29.51
20368;BME280;10343;52.402;9.796;2023-04-28T03:48:56;100861.97;;;18.68;29.05
20368;BME280;10343;52.402;9.796;2023-04-28T03:51:24;100854.91;;;17.62;30.59
20368;BME280;10343;52.402;9.796;2023-04-28T03:53:54;100859.53;;;16.84;31.80
20368;BME280;10343;52.402;9.796;2023-04-28T03:56:22;100855.72;;;17.81;30.38
20368;BME280;10343;52.402;9.796;2023-04-28T03:58:51;100851.47;;;18.97;28.82
20368;BME280;10343;52.402;9.796;2023-04-28T04:01:19;100852.81;;;18.21;29.78
20368;BME280;10343;52.402;9.796;2023-04-28T04:03:48;100850.16;;;17.67;30.68
20368;BME280;10343;52.402;9.796;2023-04-28T04:06:17;100846.41;;;17.35;31.10
20368;BME280;10343;52.402;9.796;2023-04-28T04:08:45;100848.13;;;18.42;29.92
20368;BME280;10343;52.402;9.796;2023-04-28T04:11:14;100843.75;;;17.15;31.43
20368;BME280;10343;52.402;9.796;2023-04-28T04:13:42;100833.97;;;18.23;30.04
20368;BME280;10343;52.402;9.796;2023-04-28T04:16:15;100835.41;;;17.22;31.22
20368;BME280;10343;52.402;9.796;2023-04-28T04:18:43;100828.28;;;17.94;30.21
20368;BME280;10343;52.402;9.796;2023-04-28T04:21:17;100828.50;;;18.58;29.26
20368;BME280;10343;52.402;9.796;2023-04-28T04:23:47;100833.69;;;18.27;29.77
20368;BME280;10343;52.402;9.796;2023-04-28T04:26:15;100832.91;;;19.08;28.77
20368;BME280;10343;52.402;9.796;2023-04-28T04:28:43;100832.56;;;17.98;30.15
20368;BME280;10343;52.402;9.796;2023-04-28T04:31:11;100823.31;;;18.55;29.18
20368;BME280;10343;52.402;9.796;2023-04-28T04:33:41;100828.13;;;17.97;29.92
20368;BME280;10343;52.402;9.796;2023-04-28T04:36:09;100828.22;;;17.59;30.45
20368;BME280;10343;52.402;9.796;2023-04-28T04:38:38;100827.31;;;18.12;29.96
20368;BME280;10343;52.402;9.796;2023-04-28T04:41:14;100826.91;;;17.13;31.30
20368;BME280;10343;52.402;9.796;2023-04-28T04:43:42;100813.53;;;18.85;29.14
20368;BME280;10343;52.402;9.796;2023-04-28T04:46:10;100811.31;;;17.93;29.71
20368;BME280;10343;52.402;9.796;2023-04-28T04:48:40;100813.56;;;18.36;29.72
20368;BME280;10343;52.402;9.796;2023-04-28T04:51:08;100820.13;;;17.78;30.64
20368;BME280;10343;52.402;9.796;2023-04-28T04:53:37;100817.50;;;18.29;29.87
20368;BME280;10343;52.402;9.796;2023-04-28T04:56:05;100813.44;;;17.69;30.51
20368;BME280;10343;52.402;9.796;2023-04-28T04:58:35;100815.94;;;18.25;29.90
20368;BME280;10343;52.402;9.796;2023-04-28T05:01:28;100816.41;;;17.63;30.76
20368;BME280;10343;52.402;9.796;2023-04-28T05:03:58;100810.84;;;18.70;29.39
20368;BME280;10343;52.402;9.796;2023-04-28T05:06:26;100810.28;;;17.78;30.58
20368;BME280;10343;52.402;9.796;2023-04-28T05:08:54;100813.44;;;17.69;30.75
20368;BME280;10343;52.402;9.796;2023-04-28T05:11:24;100815.66;;;17.96;30.24
20368;BME280;10343;52.402;9.796;2023-04-28T05:13:52;100808.94;;;18.56;29.35
20368;BME280;10343;52.402;9.796;2023-04-28T05:16:20;100803.91;;;17.98;30.01
20368;BME280;10343;52.402;9.796;2023-04-28T05:19:09;100806.41;;;18.19;29.81
20368;BME280;10343;52.402;9.796;2023-04-28T05:21:37;100799.94;;;18.23;30.35
20368;BME280;10343;52.402;9.796;2023-04-28T05:24:05;100800.25;;;17.10;31.35
20368;BME280;10343;52.402;9.796;2023-04-28T05:26:34;100793.81;;;18.37;30.08
20368;BME280;10343;52.402;9.796;2023-04-28T05:29:07;100794.06;;;17.99;30.40
20368;BME280;10343;52.402;9.796;2023-04-28T05:31:35;100794.00;;;18.34;29.95
20368;BME280;10343;52.402;9.796;2023-04-28T05:34:03;100784.28;;;19.29;28.77
20368;BME280;10343;52.402;9.796;2023-04-28T05:36:33;100783.84;;;19.21;28.87
20368;BME280;10343;52.402;9.796;2023-04-28T05:39:02;100789.28;;;19.35;28.24
20368;BME280;10343;52.402;9.796;2023-04-28T05:41:30;100784.53;;;18.27;29.88
20368;BME280;10343;52.402;9.796;2023-04-28T05:43:58;100785.97;;;18.16;29.93
20368;BME280;10343;52.402;9.796;2023-04-28T05:46:26;100781.59;;;18.31;29.87
20368;BME280;10343;52.402;9.796;2023-04-28T05:48:58;100776.34;;;18.46;29.56
20368;BME280;10343;52.402;9.796;2023-04-28T05:51:32;100780.16;;;18.42;29.38
20368;BME280;10343;52.402;9.796;2023-04-28T05:54:01;100774.69;;;19.39;28.93
20368;BME280;10343;52.402;9.796;2023-04-28T05:56:31;100770.28;;;18.42;30.06
20368;BME280;10343;52.402;9.796;2023-04-28T05:59:01;100766.94;;;18.87;29.37
20368;BME280;10343;52.402;9.796;2023-04-28T06:01:30;100771.31;;;18.06;30.59
20368;BME280;10343;52.402;9.796;2023-04-28T06:03:58;100765.06;;;18.89;29.39
20368;BME280;10343;52.402;9.796;2023-04-28T06:06:27;100770.22;;;19.24;28.98
20368;BME280;10343;52.402;9.796;2023-04-28T06:08:57;100771.59;;;19.31;28.84
20368;BME280;10343;52.402;9.796;2023-04-28T06:11:25;100754.72;;;19.74;28.63
20368;BME280;10343;52.402;9.796;2023-04-28T06:13:53;100755.28;;;20.09;28.13
20368;BME280;10343;52.402;9.796;2023-04-28T06:16:21;100757.69;;;20.72;27.10
20368;BME280;10343;52.402;9.796;2023-04-28T06:18:49;100753.31;;;20.98;26.74
20368;BME280;10343;52.402;9.796;2023-04-28T06:21:18;100748.81;;;21.92;26.00
20368;BME280;10343;52.402;9.796;2023-04-28T06:23:49;100754.81;;;20.31;27.68
20368;BME280;10343;52.402;9.796;2023-04-28T06:26:19;100747.84;;;20.85;26.95
20368;BME280;10343;52.402;9.796;2023-04-28T06:28:47;100749.69;;;20.70;27.46
20368;BME280;10343;52.402;9.796;2023-04-28T06:31:16;100753.00;;;20.32;27.85
20368;BME280;10343;52.402;9.796;2023-04-28T06:33:44;100751.78;;;19.78;28.72
20368;BME280;10343;52.402;9.796;2023-04-28T06:36:12;100760.09;;;20.47;27.73
20368;BME280;10343;52.402;9.796;2023-04-28T06:38:42;100754.53;;;21.07;26.83
20368;BME280;10343;52.402;9.796;2023-04-28T06:41:10;100747.16;;;21.36;26.92
20368;BME280;10343;52.402;9.796;2023-04-28T06:43:43;100758.22;;;20.91;27.40
20368;BME280;10343;52.402;9.796;2023-04-28T06:46:19;100757.25;;;22.00;26.15
20368;BME280;10343;52.402;9.796;2023-04-28T06:48:48;100759.84;;;21.21;27.00
20368;BME280;10343;52.402;9.796;2023-04-28T06:51:16;100754.41;;;21.88;26.27
20368;BME280;10343;52.402;9.796;2023-04-28T06:53:44;100756.06;;;21.51;26.56
20368;BME280;10343;52.402;9.796;2023-04-28T06:56:13;100744.81;;;21.97;26.41
20368;BME280;10343;52.402;9.796;2023-04-28T06:58:42;100746.25;;;22.66;25.25
20368;BME280;10343;52.402;9.796;2023-04-28T07:01:10;100734.91;;;21.45;26.69
20368;BME280;10343;52.402;9.796;2023-04-28T07:03:38;100741.84;;;20.52;27.88
20368;BME280;10343;52.402;9.796;2023-04-28T07:06:07;100731.75;;;21.78;26.38
20368;BME280;10343;52.402;9.796;2023-04-28T07:08:35;100724.38;;;22.32;25.69
20368;BME280;10343;52.402;9.796;2023-04-28T07:11:03;100732.09;;;21.06;27.28
20368;BME280;10343;52.402;9.796;2023-04-28T07:13:32;100724.31;;;21.95;26.18
20368;BME280;10343;52.402;9.796;2023-04-28T07:16:01;100729.69;;;21.29;26.62
20368;BME280;10343;52.402;9.796;2023-04-28T07:18:29;100726.03;;;20.75;27.51
20368;BME280;10343;52.402;9.796;2023-04-28T07:20:57;100730.78;;;20.43;27.90
20368;BME280;10343;52.402;9.796;2023-04-28T07:23:25;100715.88;;;22.12;26.21
20368;BME280;10343;52.402;9.796;2023-04-28T07:25:53;100720.72;;;22.07;25.90
20368;BME280;10343;52.402;9.796;2023-04-28T07:28:21;100717.69;;;22.25;25.93
20368;BME280;10343;52.402;9.796;2023-04-28T07:30:49;100718.72;;;22.85;25.43
20368;BME280;10343;52.402;9.796;2023-04-28T07:33:18;100723.72;;;23.15;24.91
20368;BME280;10343;52.402;9.796;2023-04-28T07:35:47;100713.38;;;23.45;24.47
20368;BME280;10343;52.402;9.796;2023-04-28T07:38:30;100717.38;;;22.16;26.11
20368;BME280;10343;52.402;9.796;2023-04-28T07:41:02;100721.78;;;22.17;26.09
20368;BME280;10343;52.402;9.796;2023-04-28T07:43:33;100717.13;;;22.82;25.69
20368;BME280;10343;52.402;9.796;2023-04-28T07:46:01;100711.66;;;24.02;24.60
20368;BME280;10343;52.402;9.796;2023-04-28T07:48:30;100713.31;;;23.80;24.16
20368;BME280;10343;52.402;9.796;2023-04-28T07:50:58;100704.22;;;23.81;24.67
20368;BME280;10343;52.402;9.796;2023-04-28T07:53:26;100709.63;;;23.23;25.04
20368;BME280;10343;52.402;9.796;2023-04-28T07:55:54;100700.03;;;23.66;24.64
20368;BME280;10343;52.402;9.796;2023-04-28T07:58:22;100695.31;;;24.15;23.95
20368;BME280;10343;52.402;9.796;2023-04-28T08:00:50;100695.16;;;23.94;24.52
20368;BME280;10343;52.402;9.796;2023-04-28T08:03:18;100699.06;;;23.67;24.71
20368;BME280;10343;52.402;9.796;2023-04-28T08:05:48;100694.88;;;23.74;24.47
20368;BME280;10343;52.402;9.796;2023-04-28T08:08:16;100690.91;;;24.80;23.65
20368;BME280;10343;52.402;9.796;2023-04-28T08:10:45;100694.44;;;24.14;24.28
20368;BME280;10343;52.402;9.796;2023-04-28T08:13:12;100689.00;;;25.24;22.99
20368;BME280;10343;52.402;9.796;2023-04-28T08:15:42;100684.47;;;24.92;23.66
20368;BME280;10343;52.402;9.796;2023-04-28T08:18:10;100679.53;;;25.51;23.00
20368;BME280;10343;52.402;9.796;2023-04-28T08:20:38;100684.97;;;25.51;22.88
20368;BME280;10343;52.402;9.796;2023-04-28T08:23:08;100674.38;;;25.16;23.23
20368;BME280;10343;52.402;9.796;2023-04-28T08:25:37;100685.59;;;25.11;23.23
20368;BME280;10343;52.402;9.796;2023-04-28T08:28:05;100682.47;;;25.27;23.01
20368;BME280;10343;52.402;9.796;2023-04-28T08:30:34;100679.34;;;25.10;23.31
20368;BME280;10343;52.402;9.796;2023-04-28T08:33:04;100681.34;;;25.08;23.26
20368;BME280;10343;52.402;9.796;2023-04-28T08:35:33;100676.13;;;25.17;23.18
20368;BME280;10343;52.402;9.796;2023-04-28T08:38:01;100680.59;;;24.74;23.54
20368;BME280;10343;52.402;9.796;2023-04-28T08:40:31;100677.28;;;24.36;24.26
20368;BME280;10343;52.402;9.796;2023-04-28T08:42:59;100676.94;;;24.30;24.39
20368;BME280;10343;52.402;9.796;2023-04-28T08:45:29;100665.06;;;25.30;23.37
20368;BME280;10343;52.402;9.796;2023-04-28T08:47:59;100666.75;;;25.94;22.67
20368;BME280;10343;52.402;9.796;2023-04-28T08:50:29;100673.38;;;24.29;24.18
20368;BME280;10343;52.402;9.796;2023-04-28T08:53:00;100666.47;;;25.45;23.69
20368;BME280;10343;52.402;9.796;2023-04-28T08:55:30;100672.00;;;25.86;22.91
20368;BME280;10343;52.402;9.796;2023-04-28T08:58:00;100666.91;;;27.23;21.54
20368;BME280;10343;52.402;9.796;2023-04-28T09:00:29;100666.78;;;26.35;22.36
20368;BME280;10343;52.402;9.796;2023-04-28T09:02:58;100668.91;;;26.91;21.56
20368;BME280;10343;52.402;9.796;2023-04-28T09:05:26;100664.88;;;25.21;22.97
20368;BME280;10343;52.402;9.796;2023-04-28T09:07:54;100657.88;;;25.92;22.66
20368;BME280;10343;52.402;9.796;2023-04-28T09:10:23;100649.03;;;26.31;22.16
20368;BME280;10343;52.402;9.796;2023-04-28T09:12:54;100649.28;;;24.58;23.97
20368;BME280;10343;52.402;9.796;2023-04-28T09:15:28;100643.06;;;26.37;22.56
20368;BME280;10343;52.402;9.796;2023-04-28T09:18:00;100645.03;;;24.88;23.79
20368;BME280;10343;52.402;9.796;2023-04-28T09:20:29;100640.47;;;25.64;23.21
20368;BME280;10343;52.402;9.796;2023-04-28T09:23:12;100645.84;;;24.68;24.26
20368;BME280;10343;52.402;9.796;2023-04-28T09:25:40;100644.41;;;24.30;24.72
20368;BME280;10343;52.402;9.796;2023-04-28T09:28:23;100634.72;;;25.36;23.80
20368;BME280;10343;52.402;9.796;2023-04-28T09:30:52;100634.13;;;26.15;22.89
20368;BME280;10343;52.402;9.796;2023-04-28T09:33:20;100635.75;;;24.58;24.48
20368;BME280;10343;52.402;9.796;2023-04-28T09:35:49;100632.88;;;23.82;25.63
20368;BME280;10343;52.402;9.796;2023-04-28T09:38:18;100620.28;;;25.35;24.01
20368;BME280;10343;52.402;9.796;2023-04-28T09:40:51;100626.88;;;25.21;24.47
20368;BME280;10343;52.402;9.796;2023-04-28T09:43:25;100626.38;;;24.74;24.66
20368;BME280;10343;52.402;9.796;2023-04-28T09:45:53;100626.19;;;25.71;23.94
20368;BME280;10343;52.402;9.796;2023-04-28T09:48:29;100629.41;;;27.07;22.64
20368;BME280;10343;52.402;9.796;2023-04-28T09:50:58;100624.50;;;25.70;23.66
20368;BME280;10343;52.402;9.796;2023-04-28T09:53:27;100625.41;;;25.81;23.61
20368;BME280;10343;52.402;9.796;2023-04-28T09:55:57;100619.47;;;26.67;23.25
20368;BME280;10343;52.402;9.796;2023-04-28T09:58:28;100629.78;;;25.72;23.96
20368;BME280;10343;52.402;9.796;2023-04-28T10:00:59;100629.88;;;25.91;23.97
20368;BME280;10343;52.402;9.796;2023-04-28T10:03:28;100632.72;;;26.31;23.28
20368;BME280;10343;52.402;9.796;2023-04-28T10:05:58;100626.78;;;27.35;22.44
20368;BME280;10343;52.402;9.796;2023-04-28T10:08:26;100619.25;;;26.89;22.60
20368;BME280;10343;52.402;9.796;2023-04-28T10:10:56;100625.59;;;26.30;23.58
20368;BME280;10343;52.402;9.796;2023-04-28T10:13:26;100632.91;;;24.71;25.38
20368;BME280;10343;52.402;9.796;2023-04-28T10:15:54;100625.91;;;24.57;25.39
20368;BME280;10343;52.402;9.796;2023-04-28T10:18:24;100623.41;;;23.88;26.52
20368;BME280;10343;52.402;9.796;2023-04-28T10:20:55;100625.22;;;25.09;25.28
20368;BME280;10343;52.402;9.796;2023-04-28T10:27:02;100617.00;;;26.24;24.17
20368;BME280;10343;52.402;9.796;2023-04-28T10:29:33;100607.91;;;26.65;23.63
20368;BME280;10343;52.402;9.796;2023-04-28T10:32:18;100597.00;;;27.43;22.91
20368;BME280;10343;52.402;9.796;2023-04-28T10:34:47;100597.81;;;28.01;22.45
20368;BME280;10343;52.402;9.796;2023-04-28T10:37:15;100604.00;;;27.26;23.23
20368;BME280;10343;52.402;9.796;2023-04-28T10:40:30;100601.31;;;26.57;24.06
20368;BME280;10343;52.402;9.796;2023-04-28T10:42:58;100605.66;;;25.26;25.36
20368;BME280;10343;52.402;9.796;2023-04-28T10:46:01;100599.31;;;27.75;22.78
20368;BME280;10343;52.402;9.796;2023-04-28T10:48:54;100591.94;;;28.41;22.53
20368;BME280;10343;52.402;9.796;2023-04-28T10:51:27;100595.72;;;28.94;21.87
20368;BME280;10343;52.402;9.796;2023-04-28T10:54:15;100595.22;;;27.61;23.15
20368;BME280;10343;52.402;9.796;2023-04-28T10:57:19;100598.56;;;27.83;23.42
20368;BME280;10343;52.402;9.796;2023-04-28T10:59:48;100596.69;;;27.46;23.81
20368;BME280;10343;52.402;9.796;2023-04-28T11:02:41;100584.72;;;27.19;23.88
20368;BME280;10343;52.402;9.796;2023-04-28T11:05:16;100585.34;;;26.74;24.57
20368;BME280;10343;52.402;9.796;2023-04-28T11:11:21;100581.28;;;28.48;23.15
20368;BME280;10343;52.402;9.796;2023-04-28T11:13:53;100583.97;;;28.12;23.37
20368;BME280;10343;52.402;9.796;2023-04-28T11:16:22;100572.38;;;27.25;23.94
20368;BME280;10343;52.402;9.796;2023-04-28T11:19:01;100561.84;;;28.15;23.34
20368;BME280;10343;52.402;9.796;2023-04-28T11:21:32;100572.69;;;26.34;25.44
20368;BME280;10343;52.402;9.796;2023-04-28T11:24:07;100560.53;;;27.63;24.02
20368;BME280;10343;52.402;9.796;2023-04-28T11:26:36;100561.13;;;27.57;24.15
20368;BME280;10343;52.402;9.796;2023-04-28T11:29:05;100555.72;;;29.03;22.54
20368;BME280;10343;52.402;9.796;2023-04-28T11:31:34;100556.66;;;27.66;24.07
20368;BME280;10343;52.402;9.796;2023-04-28T11:34:05;100558.81;;;27.62;23.90
20368;BME280;10343;52.402;9.796;2023-04-28T11:36:34;100553.44;;;28.08;23.55
20368;BME280;10343;52.402;9.796;2023-04-28T11:39:03;100548.91;;;27.89;23.47
20368;BME280;10343;52.402;9.796;2023-04-28T11:41:33;100553.88;;;28.32;23.45
20368;BME280;10343;52.402;9.796;2023-04-28T11:44:09;100544.50;;;28.16;23.24
20368;BME280;10343;52.402;9.796;2023-04-28T11:46:43;100550.97;;;28.33;22.90
20368;BME280;10343;52.402;9.796;2023-04-28T11:49:13;100547.41;;;28.51;22.87
20368;BME280;10343;52.402;9.796;2023-04-28T11:51:41;100552.19;;;27.27;24.51
20368;BME280;10343;52.402;9.796;2023-04-28T11:54:11;100548.72;;;27.73;23.83
20368;BME280;10343;52.402;9.796;2023-04-28T11:56:41;100552.53;;;27.90;23.91
20368;BME280;10343;52.402;9.796;2023-04-28T11:59:11;100555.41;;;26.93;24.57
20368;BME280;10343;52.402;9.796;2023-04-28T12:01:47;100554.59;;;27.40;24.31
20368;BME280;10343;52.402;9.796;2023-04-28T12:04:28;100553.16;;;27.74;24.12
20368;BME280;10343;52.402;9.796;2023-04-28T12:06:59;100547.97;;;28.54;23.02
20368;BME280;10343;52.402;9.796;2023-04-28T12:09:28;100560.38;;;26.30;25.91
20368;BME280;10343;52.402;9.796;2023-04-28T12:11:57;100558.13;;;26.93;26.14
20368;BME280;10343;52.402;9.796;2023-04-28T12:14:25;100557.22;;;26.24;27.00
20368;BME280;10343;52.402;9.796;2023-04-28T12:16:53;100561.66;;;27.71;26.76
20368;BME280;10343;52.402;9.796;2023-04-28T12:19:22;100559.50;;;27.74;26.83
20368;BME280;10343;52.402;9.796;2023-04-28T12:22:03;100567.03;;;25.65;29.08
20368;BME280;10343;52.402;9.796;2023-04-28T12:24:31;100565.97;;;25.56;28.96
20368;BME280;10343;52.402;9.796;2023-04-28T12:27:14;100559.28;;;26.01;28.81
20368;BME280;10343;52.402;9.796;2023-04-28T12:29:43;100549.81;;;26.56;28.66
20368;BME280;10343;52.402;9.796;2023-04-28T12:32:13;100546.06;;;26.18;28.45
20368;BME280;10343;52.402;9.796;2023-04-28T12:34:43;100540.41;;;26.70;28.72
20368;BME280;10343;52.402;9.796;2023-04-28T12:37:12;100536.28;;;27.23;28.70
20368;BME280;10343;52.402;9.796;2023-04-28T12:39:41;100521.22;;;27.76;28.73
20368;BME280;10343;52.402;9.796;2023-04-28T12:42:09;100534.56;;;28.79;27.01
20368;BME280;10343;52.402;9.796;2023-04-28T12:44:38;100532.50;;;28.09;29.02
20368;BME280;10343;52.402;9.796;2023-04-28T12:47:07;100526.69;;;28.22;27.37
20368;BME280;10343;52.402;9.796;2023-04-28T12:49:37;100517.53;;;27.95;27.93
20368;BME280;10343;52.402;9.796;2023-04-28T12:52:05;100522.94;;;27.29;28.07
20368;BME280;10343;52.402;9.796;2023-04-28T12:54:34;100536.09;;;25.25;30.94
20368;BME280;10343;52.402;9.796;2023-04-28T12:57:03;100529.63;;;24.96;31.62
20368;BME280;10343;52.402;9.796;2023-04-28T12:59:32;100528.03;;;26.36;30.09
20368;BME280;10343;52.402;9.796;2023-04-28T13:02:00;100525.06;;;25.17;31.33
20368;BME280;10343;52.402;9.796;2023-04-28T13:04:28;100526.63;;;25.41;30.88
20368;BME280;10343;52.402;9.796;2023-04-28T13:06:57;100506.03;;;26.78;29.70
20368;BME280;10343;52.402;9.796;2023-04-28T13:09:25;100522.59;;;26.26;29.64
20368;BME280;10343;52.402;9.796;2023-04-28T13:11:55;100519.44;;;26.02;30.03